This is the latest recevied weather packets stored in our database for station/object N3FU-13. If no packets are shown the sender has not sent any weather packets the latest 1 day(s).
| Time | Temp. | Humidity | Pressure | Rain* | Wind** | Luminosity | Snow |
|---|---|---|---|---|---|---|---|
| 1778099222 | 31.67° C | 69% | 1015.4 hPa | 0 mm | - | - | - |
| 1778097422 | 31.11° C | 72% | 1015.5 hPa | 0 mm | - | - | - |
| 1778096522 | 31.11° C | 72% | 1015.6 hPa | 0 mm | - | - | - |
| 1778094722 | 31.11° C | 73% | 1015.9 hPa | 0 mm | - | - | - |
| 1778092159 | 31.67° C | 71% | 1016.3 hPa | 0 mm | - | - | - |
| 1778092022 | 31.67° C | 71% | 1016.3 hPa | 0 mm | - | - | - |
| 1778091553 | 31.11° C | 71% | 1016.4 hPa | 0 mm | - | - | - |
| 1778086622 | 31.11° C | 69% | 1016.9 hPa | 0 mm | - | - | - |
| 1778067723 | 21.67° C | 96% | 1015.8 hPa | 0 mm | - | - | - |
| 1778066823 | 21.11° C | 95% | 1015.7 hPa | 0 mm | - | - | - |
| 1778065923 | 21.11° C | 94% | 1015.5 hPa | 0 mm | - | - | - |
| 1778065023 | 21.11° C | 94% | 1015.4 hPa | 0 mm | - | - | - |
| 1778064123 | 21.11° C | 93% | 1015.2 hPa | 0 mm | - | - | - |
| 1778063223 | 21.11° C | 93% | 1015.1 hPa | 0 mm | - | - | - |
| 1778062323 | 21.11° C | 92% | 1015.1 hPa | 0 mm | - | - | - |
| 1778061423 | 21.67° C | 91% | 1015.1 hPa | 0 mm | - | - | - |
| 1778060523 | 21.67° C | 91% | 1015 hPa | 0 mm | - | - | - |
| 1778059623 | 21.67° C | 90% | 1014.9 hPa | 0 mm | - | - | - |
| 1778058723 | 22.22° C | 90% | 1014.9 hPa | 0 mm | - | - | - |
| 1778057823 | 22.22° C | 89% | 1014.9 hPa | 0 mm | - | - | - |
| 1778056923 | 22.22° C | 89% | 1014.9 hPa | 0 mm | - | - | - |
| 1778056023 | 22.22° C | 88% | 1015.1 hPa | 0 mm | - | - | - |
| 1778055123 | 22.78° C | 88% | 1014.9 hPa | 0 mm | - | - | - |
| 1778053323 | 22.78° C | 86% | 1015.1 hPa | 0 mm | - | - | - |
| 1778051523 | 22.78° C | 85% | 1015.2 hPa | 0 mm | - | - | - |
* Rain latest hour (hover to see other rain measurements)
** Current wind speed in m/s (hover to see current wind gust speed)